Currently 68°F in Temecula, California, USA
68°F
79°F / 46°F
1 mph E
0.00"
Wednesday, January 17, 2018 6:03 PM PST

Temecula, California Weather Summary
Last 36 Hours

Temperature Winds Hourly Humidity Dewpoint
Time Report Norm Report Norm Max Gusts Precip. Rpt. Norm Rpt. Norm Pressure
1Wed 06:03 PM  67.6°F  59°F  1 mph E  2 mph  4 mph  0.00"  56%  55%  51°F  42°F  30.17"
Wed 06:00 PM  67.9°F  59°F  2 mph E  3 mph  6 mph  0.00"  56%  55%  51°F  42°F  30.17"
Wed 05:00 PM  73.5°F  63°F  3 mph S  3 mph  5 mph  0.00"  48%  48%  52°F  42°F  30.16"
Wed 04:00 PM  76.6°F  67°F  3 mph SW  5 mph  9 mph  0.00"  42%  41%  51°F  42°F  30.14"
Wed 03:00 PM  79.1°F  69°F  4 mph W  5 mph  10 mph  0.00"  39%  37%  51°F  41°F  30.12"
2Wed 02:55 PM  79.2°F  69°F  6 mph SW  5 mph  10 mph  ----  37%  37%  50°F  41°F  30.11"
Wed 02:00 PM  77.0°F  69°F  calm  5 mph  5 mph  0.00"  32%  37%  44°F  40°F  30.12"
Wed 01:00 PM  75.1°F  67°F  3 mph NW  4 mph  6 mph  0.00"  39%  39%  47°F  41°F  30.13"
Wed 12:00 PM  70.3°F  64°F  2 mph SW  3 mph  5 mph  0.00"  48%  45%  49°F  42°F  30.18"
Wed 11:00 AM  65.3°F  59°F  calm  2 mph  3 mph  0.00"  56%  54%  48°F  42°F  30.24"
Wed 10:00 AM  58.4°F  53°F  calm  2 mph  3 mph  0.00"  72%  66%  49°F  42°F  30.26"
Wed 09:00 AM  50.7°F  47°F  calm  1 mph  3 mph  0.00"  90%  78%  48°F  40°F  30.26"
Wed 08:00 AM  47.2°F  43°F  calm  1 mph  5 mph  0.00"  94%  84%  46°F  38°F  30.25"
3Wed 07:06 AM  45.8°F  42°F  calm  1 mph  none  ----  96%  85%  45°F  37°F  30.23"
Wed 07:00 AM  45.9°F  42°F  calm  1 mph  none  0.00"  96%  85%  45°F  37°F  30.23"
Wed 06:00 AM  46.9°F  42°F  calm  1 mph  3 mph  0.00"  95%  83%  45°F  37°F  30.21"
Wed 05:00 AM  47.4°F  43°F  calm  1 mph  4 mph  0.00"  94%  82%  46°F  38°F  30.20"
Wed 04:00 AM  48.3°F  44°F  2 mph W  1 mph  5 mph  0.00"  92%  81%  46°F  38°F  30.20"
Wed 03:00 AM  48.8°F  44°F  2 mph NW  1 mph  2 mph  0.00"  88%  80%  45°F  38°F  30.20"
Wed 02:00 AM  49.8°F  45°F  calm  1 mph  none  0.00"  86%  78%  46°F  39°F  30.21"
Wed 01:00 AM  51.2°F  46°F  calm  1 mph  2 mph  0.00"  84%  77%  46°F  39°F  30.20"
Wed 12:00 AM  52.3°F  47°F  1 mph E  1 mph  2 mph  0.00"  84%  74%  47°F  39°F  30.20"
Tue 11:00 PM  54.0°F  49°F  calm  1 mph  3 mph  0.00"  80%  72%  48°F  40°F  30.19"
Tue 10:00 PM  55.4°F  50°F  calm  1 mph  3 mph  0.00"  77%  69%  48°F  40°F  30.20"
Tue 09:00 PM  57.7°F  52°F  calm  1 mph  none  0.00"  73%  67%  49°F  41°F  30.19"
Tue 08:00 PM  59.3°F  54°F  calm  1 mph  4 mph  0.00"  68%  64%  48°F  42°F  30.19"
Tue 07:00 PM  60.3°F  56°F  calm  2 mph  4 mph  0.00"  64%  60%  48°F  42°F  30.19"
Tue 06:00 PM  63.2°F  59°F  3 mph E  2 mph  4 mph  0.00"  55%  55%  46°F  42°F  30.17"
Tue 05:00 PM  66.3°F  63°F  calm  3 mph  6 mph  0.00"  51%  48%  47°F  42°F  30.15"
Tue 04:00 PM  69.3°F  67°F  3 mph S  5 mph  9 mph  0.00"  47%  41%  48°F  42°F  30.15"
Tue 03:00 PM  71.7°F  69°F  5 mph SW  5 mph  8 mph  0.00"  46%  37%  49°F  41°F  30.13"
Tue 02:00 PM  73.0°F  69°F  4 mph SW  5 mph  8 mph  0.00"  40%  37%  46°F  41°F  30.13"
Tue 01:00 PM  71.7°F  67°F  calm  4 mph  5 mph  0.00"  42%  40%  47°F  41°F  30.14"
Tue 12:00 PM  66.0°F  64°F  calm  3 mph  5 mph  0.00"  52%  45%  47°F  42°F  30.16"
Tue 11:00 AM  59.6°F  59°F  calm  2 mph  5 mph  0.00"  63%  55%  46°F  42°F  30.23"
Tue 10:00 AM  57.0°F  53°F  calm  2 mph  2 mph  0.00"  73%  66%  48°F  42°F  30.21"
Tue 09:00 AM  50.6°F  47°F  1 mph SE  1 mph  4 mph  0.00"  89%  78%  48°F  40°F  30.23"
Tue 08:00 AM  47.2°F  43°F  1 mph N  1 mph  2 mph  0.00"  92%  84%  45°F  38°F  30.22"
Tue 07:00 AM  46.6°F  42°F  calm  1 mph  4 mph  0.00"  92%  85%  44°F  37°F  30.20"

  1. Current weather data. No green row appears if the current weather data is also the high or low for the current day.
  2. High temperature for the current day.
  3. Low temperature for the current day.

The Temecula weather pages are a service of WeatherCurrents. Temecula, California is located in the Temecula Valley, in southwestern Riverside County, along the Interstate 15 highway. The Temecula Valley's rolling hills are home to the Temecula wine country, vineyards, golf courses, a casino resort, and Old Town Temecula.
Copyright ©Wed Jan 17 18:04:09 PST 2018  WeatherCurrents. All rights reserved. - Submit questions and comments - Privacy Policy

This page automatically refreshes every 10 minutes.